Time;durP1;ratioP1;P1;durP2;ratioP2;P2;SDS_P1;SDS_P2;PMS_P1;PMS_P2;Temp;Humidity;BMP_temperature;BMP_pressure;BME280_temperature;BME280_humidity;BME280_pressure;Samples;Min_cycle;Max_cycle;Signal;HPM_P1;HPM_P2
2023/03/17 00:02:21;;;;;;;10.07;7.20;;;4.70;99.90;;;;;;5013606;28;20460;-75
2023/03/17 00:04:49;;;;;;;12.17;8.23;;;4.70;99.90;;;;;;5013227;28;20486;-75
2023/03/17 00:07:17;;;;;;;16.53;7.83;;;4.70;99.90;;;;;;5013110;28;20453;-75
2023/03/17 00:09:44;;;;;;;14.60;7.43;;;4.70;99.90;;;;;;5014071;28;20483;-74
2023/03/17 00:12:11;;;;;;;12.23;7.90;;;4.70;99.90;;;;;;5012286;28;20518;-74
2023/03/17 00:14:38;;;;;;;14.37;7.90;;;4.70;99.90;;;;;;5013477;28;20483;-75
2023/03/17 00:17:05;;;;;;;12.30;7.93;;;4.70;99.90;;;;;;5013434;28;20505;-74
2023/03/17 00:19:35;;;;;;;9.43;6.87;;;4.70;99.90;;;;;;5012943;28;20470;-74
2023/03/17 00:22:05;;;;;;;12.33;7.93;;;4.80;99.90;;;;;;5013265;28;20563;-75
2023/03/17 00:24:32;;;;;;;13.27;7.90;;;4.80;99.90;;;;;;5012863;28;20487;-75
2023/03/17 00:26:59;;;;;;;9.20;7.10;;;4.80;99.90;;;;;;5013444;28;20524;-75
2023/03/17 00:29:25;;;;;;;12.10;7.30;;;4.80;99.90;;;;;;5013522;28;20907;-75
2023/03/17 00:31:53;;;;;;;9.77;7.90;;;4.80;99.90;;;;;;5012322;28;21060;-74
2023/03/17 00:34:20;;;;;;;12.00;8.00;;;4.80;99.90;;;;;;5013356;28;20478;-74
2023/03/17 00:36:49;;;;;;;13.60;8.00;;;4.80;99.90;;;;;;5013160;28;20480;-74
2023/03/17 00:39:18;;;;;;;13.17;7.80;;;4.90;99.90;;;;;;5012367;28;20460;-74
2023/03/17 00:41:44;;;;;;;13.20;7.87;;;4.80;99.90;;;;;;5012671;28;20449;-75
2023/03/17 00:44:11;;;;;;;14.30;8.20;;;4.80;99.90;;;;;;5012094;28;20549;-75
2023/03/17 00:46:40;;;;;;;10.30;7.10;;;4.80;99.90;;;;;;5012958;28;20459;-75
2023/03/17 00:49:15;;;;;;;14.03;7.37;;;4.80;99.90;;;;;;5013137;28;20847;-75
2023/03/17 00:51:42;;;;;;;10.97;7.70;;;4.80;99.90;;;;;;5011448;28;20997;-75
2023/03/17 00:54:10;;;;;;;13.20;7.93;;;4.70;99.90;;;;;;5009769;28;20480;-75
2023/03/17 00:56:39;;;;;;;11.50;7.20;;;4.70;99.90;;;;;;5012067;28;20822;-74
2023/03/17 00:59:15;;;;;;;13.60;7.20;;;4.70;99.90;;;;;;5012998;28;20490;-74
2023/03/17 01:01:42;;;;;;;11.13;7.07;;;4.70;99.90;;;;;;5008060;28;20448;-75
2023/03/17 01:04:09;;;;;;;11.43;8.20;;;4.70;99.90;;;;;;5012085;28;20478;-75
2023/03/17 01:06:36;;;;;;;9.30;7.10;;;4.70;99.90;;;;;;5004623;28;20550;-75
2023/03/17 01:09:03;;;;;;;12.30;6.90;;;4.70;99.90;;;;;;5012165;28;20527;-75
2023/03/17 01:11:30;;;;;;;10.90;7.80;;;4.70;99.90;;;;;;5012179;28;20538;-75
2023/03/17 01:13:58;;;;;;;13.60;7.90;;;4.80;99.90;;;;;;5012717;28;20478;-75
2023/03/17 01:16:25;;;;;;;11.30;6.83;;;4.80;99.90;;;;;;5011170;28;20978;-75
2023/03/17 01:18:52;;;;;;;12.50;6.40;;;4.80;99.90;;;;;;5012662;28;20468;-74
2023/03/17 01:21:19;;;;;;;13.67;7.83;;;4.80;99.90;;;;;;5011693;28;20448;-75
2023/03/17 01:23:46;;;;;;;15.03;8.00;;;4.80;99.90;;;;;;5012020;28;20484;-75
2023/03/17 01:26:12;;;;;;;14.53;7.80;;;4.80;99.90;;;;;;5011886;28;20493;-74
2023/03/17 01:28:40;;;;;;;10.23;7.90;;;4.80;99.90;;;;;;5011454;28;21030;-74
2023/03/17 01:31:08;;;;;;;14.80;7.77;;;4.80;99.90;;;;;;5011817;28;20488;-75
2023/03/17 01:33:35;;;;;;;10.10;7.40;;;4.80;99.90;;;;;;5011973;28;20839;-75
2023/03/17 01:36:02;;;;;;;10.87;7.47;;;4.80;99.90;;;;;;5011367;28;20481;-74
2023/03/17 01:38:28;;;;;;;11.80;7.70;;;4.70;99.90;;;;;;5011998;28;20848;-75
2023/03/17 01:40:55;;;;;;;13.10;8.23;;;4.70;99.90;;;;;;5010486;28;20510;-75
2023/03/17 01:43:24;;;;;;;12.37;7.60;;;4.70;99.90;;;;;;5008313;28;20460;-75
2023/03/17 01:46:26;;;;;;;14.43;8.90;;;4.60;99.90;;;;;;5011538;28;20460;-75
2023/03/17 01:49:13;;;;;;;11.00;7.17;;;4.60;99.90;;;;;;5005495;28;20522;-75
2023/03/17 01:51:48;;;;;;;11.70;7.40;;;4.70;99.90;;;;;;5011824;28;20497;-74
2023/03/17 01:54:20;;;;;;;10.30;7.63;;;4.70;99.90;;;;;;5008249;28;20463;-75
2023/03/17 01:56:51;;;;;;;9.33;7.47;;;4.70;99.90;;;;;;5011608;28;20487;-75
2023/03/17 01:59:22;;;;;;;11.00;8.03;;;4.70;99.90;;;;;;5011421;28;20957;-75
2023/03/17 02:01:55;;;;;;;12.00;7.93;;;4.70;99.90;;;;;;5005291;28;20454;-75
2023/03/17 02:04:22;;;;;;;10.90;7.63;;;4.60;99.90;;;;;;5011753;28;20557;-75
2023/03/17 02:06:51;;;;;;;14.00;7.80;;;4.60;99.90;;;;;;5010572;28;20452;-75
2023/03/17 02:09:17;;;;;;;10.87;8.13;;;4.60;99.90;;;;;;5010619;28;21017;-75
2023/03/17 02:11:45;;;;;;;12.00;7.87;;;4.50;99.90;;;;;;5011558;28;20487;-75
2023/03/17 02:14:12;;;;;;;14.70;8.63;;;4.50;99.90;;;;;;5010842;28;20534;-74
2023/03/17 02:16:38;;;;;;;13.23;8.07;;;4.50;99.90;;;;;;5009177;28;20460;-74
2023/03/17 02:19:07;;;;;;;11.67;7.50;;;4.40;99.90;;;;;;5011177;28;20452;-75
2023/03/17 02:21:42;;;;;;;11.13;8.07;;;4.30;99.90;;;;;;5011158;28;20496;-75
2023/03/17 02:24:16;;;;;;;11.93;7.73;;;4.30;99.90;;;;;;5010699;28;20476;-75
2023/03/17 02:26:44;;;;;;;13.50;8.47;;;4.20;99.90;;;;;;5003379;28;20515;-75
2023/03/17 02:29:11;;;;;;;13.40;7.90;;;4.20;99.90;;;;;;5011280;28;20474;-74
2023/03/17 02:31:38;;;;;;;12.53;7.77;;;4.10;99.90;;;;;;5010181;28;20539;-75
2023/03/17 02:34:05;;;;;;;13.93;8.53;;;4.00;99.90;;;;;;5009878;28;20492;-75
2023/03/17 02:36:32;;;;;;;17.27;8.20;;;4.00;99.90;;;;;;5011199;28;21033;-75
2023/03/17 02:39:00;;;;;;;11.03;7.57;;;3.90;99.90;;;;;;5010693;28;20522;-74
2023/03/17 02:41:27;;;;;;;9.97;7.50;;;3.90;99.90;;;;;;5011018;28;21027;-74
2023/03/17 02:43:54;;;;;;;15.20;8.63;;;3.80;99.90;;;;;;5010772;28;20476;-75
2023/03/17 02:46:21;;;;;;;11.87;8.13;;;3.80;99.90;;;;;;5010035;28;20473;-74
2023/03/17 02:48:48;;;;;;;9.90;7.77;;;3.80;99.90;;;;;;5011632;28;20460;-75
2023/03/17 02:51:15;;;;;;;10.00;7.40;;;3.80;99.90;;;;;;5009950;28;20492;-75
2023/03/17 02:53:42;;;;;;;11.03;7.17;;;3.80;99.90;;;;;;5010891;28;20475;-75
2023/03/17 02:56:10;;;;;;;10.07;7.13;;;3.90;99.90;;;;;;5010734;28;20875;-75
2023/03/17 02:58:37;;;;;;;11.90;7.83;;;3.90;99.90;;;;;;5010145;28;20514;-75
2023/03/17 03:01:04;;;;;;;10.00;7.40;;;3.90;99.90;;;;;;5009632;28;20455;-75
2023/03/17 03:03:30;;;;;;;9.83;7.10;;;3.90;99.90;;;;;;5010204;28;20459;-75
2023/03/17 03:05:58;;;;;;;9.67;6.83;;;4.00;99.90;;;;;;5009905;28;20544;-75
2023/03/17 03:08:25;;;;;;;13.07;8.10;;;4.00;99.90;;;;;;5010897;28;20471;-75
2023/03/17 03:10:53;;;;;;;9.67;7.27;;;4.00;99.90;;;;;;5009635;28;20606;-75
2023/03/17 03:13:22;;;;;;;10.77;7.03;;;4.00;99.90;;;;;;5010978;28;20464;-75
2023/03/17 03:15:49;;;;;;;12.30;7.87;;;4.00;99.90;;;;;;5013323;28;20473;-74
2023/03/17 03:18:15;;;;;;;10.23;7.40;;;4.00;99.90;;;;;;5014496;28;20514;-74
2023/03/17 03:20:43;;;;;;;11.80;6.93;;;4.00;99.90;;;;;;5014124;28;20963;-75
2023/03/17 03:23:10;;;;;;;9.77;7.50;;;4.00;99.90;;;;;;5014188;28;20449;-75
2023/03/17 03:25:37;;;;;;;9.40;7.33;;;4.10;99.90;;;;;;5013720;28;20471;-74
2023/03/17 03:28:04;;;;;;;10.03;7.10;;;4.10;99.90;;;;;;5014456;28;20976;-75
2023/03/17 03:30:32;;;;;;;11.93;7.37;;;4.10;99.90;;;;;;5013367;28;20517;-74
2023/03/17 03:32:59;;;;;;;10.60;6.50;;;4.10;99.90;;;;;;5014608;28;20490;-74
2023/03/17 03:35:25;;;;;;;9.30;7.10;;;4.10;99.90;;;;;;5014188;28;20530;-75
2023/03/17 03:37:52;;;;;;;10.53;7.33;;;4.10;99.90;;;;;;5014101;28;20980;-75
2023/03/17 03:40:19;;;;;;;9.77;7.03;;;4.10;99.90;;;;;;5014071;28;20530;-75
2023/03/17 03:42:45;;;;;;;10.67;7.20;;;4.10;99.90;;;;;;5013721;28;20956;-75
2023/03/17 03:45:12;;;;;;;12.10;7.40;;;4.20;99.90;;;;;;5014167;28;20481;-75
2023/03/17 03:47:40;;;;;;;14.40;7.00;;;4.20;99.90;;;;;;5013917;28;20467;-75
2023/03/17 03:50:09;;;;;;;9.03;7.07;;;4.20;99.90;;;;;;5011908;28;20455;-75
2023/03/17 03:52:36;;;;;;;9.33;6.67;;;4.20;99.90;;;;;;5013715;28;20996;-75
2023/03/17 03:55:03;;;;;;;10.20;7.20;;;4.20;99.90;;;;;;5013592;28;20473;-75
2023/03/17 03:57:29;;;;;;;8.90;6.77;;;4.20;99.90;;;;;;5013267;28;20959;-75
2023/03/17 03:59:56;;;;;;;9.33;6.97;;;4.20;99.90;;;;;;5014213;28;20462;-75
2023/03/17 04:02:23;;;;;;;9.53;6.50;;;4.20;99.90;;;;;;5011381;28;20950;-75
2023/03/17 04:04:51;;;;;;;11.20;7.00;;;4.10;99.90;;;;;;5012793;28;20479;-75
2023/03/17 04:07:17;;;;;;;11.37;7.07;;;4.10;99.90;;;;;;5013425;28;20840;-75
2023/03/17 04:09:44;;;;;;;8.83;6.63;;;4.00;99.90;;;;;;5007915;28;20443;-75
2023/03/17 04:12:11;;;;;;;11.87;7.30;;;4.00;99.90;;;;;;5013915;28;20497;-74
2023/03/17 04:14:38;;;;;;;11.73;6.77;;;4.00;99.90;;;;;;5012408;28;20541;-75
2023/03/17 04:17:05;;;;;;;12.17;7.30;;;4.00;99.90;;;;;;5012822;28;20455;-75
2023/03/17 04:19:31;;;;;;;9.53;6.67;;;4.00;99.90;;;;;;5011771;28;20962;-74
2023/03/17 04:21:59;;;;;;;13.90;7.40;;;4.00;99.90;;;;;;5013113;28;20459;-75
2023/03/17 04:24:26;;;;;;;12.57;7.10;;;4.00;99.90;;;;;;5011316;28;20479;-74
2023/03/17 04:26:53;;;;;;;8.57;6.30;;;4.00;99.90;;;;;;5011701;28;20538;-74
2023/03/17 04:29:20;;;;;;;11.80;6.93;;;4.00;99.90;;;;;;5013503;28;20891;-75
2023/03/17 04:31:46;;;;;;;9.20;6.50;;;3.90;99.90;;;;;;5012666;28;20492;-74
2023/03/17 04:34:15;;;;;;;9.10;6.60;;;3.90;99.90;;;;;;5012943;28;20475;-75
2023/03/17 04:36:42;;;;;;;10.57;6.50;;;4.00;99.90;;;;;;5013597;28;20491;-74
2023/03/17 04:39:11;;;;;;;8.40;6.53;;;4.00;99.90;;;;;;5013174;28;20974;-75
2023/03/17 04:41:37;;;;;;;8.53;7.00;;;4.00;99.90;;;;;;5011810;28;20466;-76
2023/03/17 04:44:05;;;;;;;9.80;6.13;;;4.00;99.90;;;;;;5013290;28;20899;-74
2023/03/17 04:46:32;;;;;;;9.67;7.30;;;3.90;99.90;;;;;;5011559;28;20471;-74
2023/03/17 04:48:59;;;;;;;9.50;6.67;;;3.90;99.90;;;;;;5013398;28;20800;-75
2023/03/17 04:51:26;;;;;;;9.03;6.60;;;3.90;99.90;;;;;;5012357;28;20556;-76
2023/03/17 04:53:53;;;;;;;10.40;6.33;;;3.90;99.90;;;;;;5012700;28;21054;-74
2023/03/17 04:56:21;;;;;;;8.70;6.93;;;3.80;99.90;;;;;;5013050;28;20940;-74
2023/03/17 04:58:47;;;;;;;11.33;6.87;;;3.80;99.90;;;;;;5012360;28;20532;-75
2023/03/17 05:01:14;;;;;;;10.30;6.97;;;3.80;99.90;;;;;;5011635;28;20525;-74
2023/03/17 05:03:41;;;;;;;9.70;7.37;;;3.70;99.90;;;;;;5012838;28;20490;-75
2023/03/17 05:06:07;;;;;;;10.33;6.57;;;3.70;99.90;;;;;;5012008;28;20455;-74
2023/03/17 05:08:34;;;;;;;8.70;6.70;;;3.50;99.90;;;;;;5012699;28;20514;-75
2023/03/17 05:11:01;;;;;;;16.10;7.90;;;3.50;99.90;;;;;;5011627;28;20948;-75
2023/03/17 05:13:29;;;;;;;9.20;7.10;;;3.40;99.90;;;;;;5012569;28;20487;-75
2023/03/17 05:15:58;;;;;;;8.53;6.93;;;3.30;99.90;;;;;;5012257;28;20470;-75
2023/03/17 05:18:25;;;;;;;15.07;7.87;;;3.20;99.90;;;;;;5011361;28;20455;-75
2023/03/17 05:20:52;;;;;;;10.40;6.70;;;3.10;99.90;;;;;;5005241;28;20514;-75
2023/03/17 05:23:19;;;;;;;9.53;6.70;;;3.10;99.90;;;;;;5010702;28;20488;-76
2023/03/17 05:25:47;;;;;;;9.57;7.40;;;3.10;99.90;;;;;;5011144;28;20458;-74
2023/03/17 05:28:14;;;;;;;11.07;7.00;;;3.00;99.90;;;;;;5012438;28;20562;-75
2023/03/17 05:30:43;;;;;;;10.77;7.30;;;3.00;99.90;;;;;;5011446;28;20455;-75
2023/03/17 05:33:09;;;;;;;12.40;8.00;;;3.00;99.90;;;;;;5012349;28;20987;-75
2023/03/17 05:35:36;;;;;;;10.00;6.83;;;2.90;99.90;;;;;;5011164;28;20856;-76
2023/03/17 05:38:03;;;;;;;15.30;7.90;;;2.90;99.90;;;;;;5010376;28;20957;-75
2023/03/17 05:40:30;;;;;;;11.07;7.60;;;2.90;99.90;;;;;;5011657;28;20459;-75
2023/03/17 05:42:56;;;;;;;10.37;7.03;;;2.90;99.90;;;;;;5012005;28;20455;-76
2023/03/17 05:45:23;;;;;;;12.70;7.60;;;2.90;99.90;;;;;;5011328;28;20484;-75
2023/03/17 05:47:51;;;;;;;11.83;6.83;;;3.00;99.90;;;;;;5012194;28;20887;-75
2023/03/17 05:50:18;;;;;;;8.37;6.97;;;3.00;99.90;;;;;;5011037;28;20538;-75
2023/03/17 05:52:44;;;;;;;9.83;7.00;;;3.00;99.90;;;;;;5011701;28;20509;-74
2023/03/17 05:55:11;;;;;;;10.30;6.53;;;3.10;99.90;;;;;;5011415;28;20541;-75
2023/03/17 05:57:38;;;;;;;11.27;7.10;;;3.10;99.90;;;;;;5011426;28;20506;-75
2023/03/17 06:00:05;;;;;;;9.13;6.57;;;3.10;99.90;;;;;;5012126;28;20502;-75
2023/03/17 06:02:34;;;;;;;13.23;7.60;;;3.20;99.90;;;;;;5010599;28;20463;-75
2023/03/17 06:05:02;;;;;;;11.83;7.67;;;3.10;99.90;;;;;;5004681;28;20996;-75
2023/03/17 06:07:29;;;;;;;13.37;7.50;;;3.10;99.90;;;;;;5011718;28;20513;-75
2023/03/17 06:09:55;;;;;;;10.57;7.30;;;3.10;99.90;;;;;;5011070;28;20459;-75
2023/03/17 06:12:22;;;;;;;8.93;6.63;;;3.10;99.90;;;;;;5011973;28;20486;-76
2023/03/17 06:14:48;;;;;;;11.47;8.13;;;3.10;99.90;;;;;;5011488;28;20470;-75
2023/03/17 06:17:15;;;;;;;15.90;8.00;;;3.20;99.90;;;;;;5010891;28;21001;-74
2023/03/17 06:19:42;;;;;;;10.70;7.40;;;3.30;99.90;;;;;;5012017;28;20518;-75
2023/03/17 06:22:10;;;;;;;8.23;6.80;;;3.30;99.90;;;;;;5010601;28;20479;-76
2023/03/17 06:24:37;;;;;;;11.30;6.60;;;3.40;99.90;;;;;;5011589;28;20479;-76
2023/03/17 06:27:04;;;;;;;10.73;6.90;;;3.60;99.90;;;;;;5011285;28;20463;-76
2023/03/17 06:29:31;;;;;;;9.73;7.23;;;3.90;99.90;;;;;;5011152;28;20472;-76
2023/03/17 06:31:57;;;;;;;10.83;7.33;;;4.40;99.90;;;;;;5010719;28;20488;-76
2023/03/17 06:34:24;;;;;;;8.90;6.40;;;4.80;99.90;;;;;;5010161;28;20487;-76
2023/03/17 06:36:51;;;;;;;9.37;6.50;;;5.30;99.90;;;;;;5007245;28;20544;-76
2023/03/17 06:39:19;;;;;;;8.67;6.93;;;5.80;99.90;;;;;;5004520;28;20452;-77
2023/03/17 06:41:46;;;;;;;9.00;6.00;;;6.40;99.90;;;;;;5010028;28;21107;-76
2023/03/17 06:44:12;;;;;;;10.27;7.20;;;6.90;99.90;;;;;;5008736;28;20493;-76
2023/03/17 06:46:39;;;;;;;10.60;6.03;;;7.40;99.90;;;;;;5009722;28;20478;-77
2023/03/17 06:49:06;;;;;;;10.70;7.70;;;7.80;99.90;;;;;;5010898;28;20957;-78
2023/03/17 06:51:36;;;;;;;12.50;6.70;;;8.00;99.90;;;;;;5012108;28;20466;-77
2023/03/17 06:54:02;;;;;;;11.43;7.47;;;8.30;99.90;;;;;;5010866;28;20500;-77
2023/03/17 06:56:30;;;;;;;11.33;7.00;;;8.80;99.90;;;;;;5009363;28;20864;-76
2023/03/17 06:58:57;;;;;;;16.43;6.80;;;9.30;99.90;;;;;;5008723;28;20470;-76
2023/03/17 07:01:24;;;;;;;9.13;6.10;;;9.60;99.90;;;;;;5010547;28;20484;-76
2023/03/17 07:03:51;;;;;;;9.00;6.77;;;9.90;99.90;;;;;;5011392;28;20465;-76
2023/03/17 07:06:17;;;;;;;10.60;7.10;;;10.10;99.90;;;;;;5009430;28;20982;-76
2023/03/17 07:08:45;;;;;;;9.30;6.50;;;10.40;99.90;;;;;;5009556;28;20457;-77
2023/03/17 07:11:12;;;;;;;9.20;7.57;;;10.30;99.90;;;;;;5010102;28;20458;-77
2023/03/17 07:13:40;;;;;;;9.80;7.03;;;10.00;99.90;;;;;;5009171;28;20554;-76
2023/03/17 07:16:07;;;;;;;9.80;6.93;;;9.90;99.90;;;;;;5010601;28;20557;-76
2023/03/17 07:18:34;;;;;;;15.30;8.00;;;10.20;99.90;;;;;;5010469;28;20510;-76
2023/03/17 07:21:01;;;;;;;8.70;7.10;;;10.50;99.90;;;;;;5010834;28;20458;-76
2023/03/17 07:23:29;;;;;;;8.57;7.07;;;10.70;99.90;;;;;;5010646;28;20516;-79
2023/03/17 07:25:56;;;;;;;10.40;6.63;;;11.10;99.90;;;;;;5009131;28;21024;-73
2023/03/17 07:28:24;;;;;;;13.53;7.40;;;11.30;99.90;;;;;;5015891;28;20517;-73
2023/03/17 07:30:52;;;;;;;10.33;6.40;;;11.60;99.90;;;;;;5009121;28;20455;-73
2023/03/17 07:33:20;;;;;;;8.07;6.63;;;11.30;99.90;;;;;;5010095;28;20493;-73
2023/03/17 07:35:47;;;;;;;9.53;7.30;;;11.10;99.90;;;;;;5009328;28;20555;-74
2023/03/17 07:38:15;;;;;;;11.40;7.40;;;10.70;99.90;;;;;;5006089;28;20457;-73
2023/03/17 07:40:42;;;;;;;9.97;7.17;;;10.70;99.90;;;;;;5010891;28;20936;-72
2023/03/17 07:43:09;;;;;;;11.02;6.72;;;10.60;99.90;;;;;;5015724;28;20495;-76
2023/03/17 07:45:36;;;;;;;9.90;7.30;;;10.30;99.90;;;;;;5012163;28;20273;-77
2023/03/17 07:48:05;;;;;;;9.60;6.90;;;9.90;99.90;;;;;;5000280;28;20958;-77
2023/03/17 07:50:32;;;;;;;6.77;6.07;;;9.50;99.90;;;;;;4997164;28;20464;-78
2023/03/17 07:52:59;;;;;;;10.50;6.80;;;9.30;99.90;;;;;;4997205;28;20521;-78
2023/03/17 07:55:26;;;;;;;8.50;6.33;;;9.00;99.90;;;;;;4998023;28;20481;-78
2023/03/17 07:57:52;;;;;;;7.10;6.20;;;8.90;99.90;;;;;;4996929;28;20469;-78
2023/03/17 08:00:20;;;;;;;6.83;6.20;;;8.80;99.90;;;;;;4997195;28;20944;-78
2023/03/17 08:02:47;;;;;;;10.37;7.17;;;8.70;99.90;;;;;;5001440;28;20450;-78
2023/03/17 08:05:15;;;;;;;9.83;6.63;;;8.60;99.90;;;;;;5000262;28;20468;-78
2023/03/17 08:07:42;;;;;;;9.40;7.00;;;8.60;99.90;;;;;;5001612;28;20461;-78
2023/03/17 08:10:11;;;;;;;12.63;6.47;;;8.40;99.90;;;;;;5000934;28;20454;-81
2023/03/17 08:12:38;;;;;;;7.47;5.70;;;8.70;99.90;;;;;;5001887;28;20489;-78
2023/03/17 08:15:06;;;;;;;10.63;6.70;;;9.00;99.90;;;;;;5000621;28;20482;-79
2023/03/17 08:17:35;;;;;;;9.87;6.70;;;9.40;99.90;;;;;;5001473;28;20522;-79
2023/03/17 08:20:03;;;;;;;8.23;6.10;;;9.60;99.90;;;;;;5001206;28;20545;-78
2023/03/17 08:22:31;;;;;;;6.57;5.87;;;9.80;99.90;;;;;;5001148;28;20484;-78
2023/03/17 08:24:58;;;;;;;7.43;6.33;;;9.80;99.90;;;;;;5000193;28;20474;-77
2023/03/17 08:27:25;;;;;;;8.60;6.20;;;9.70;99.90;;;;;;5000371;28;20447;-77
2023/03/17 08:29:51;;;;;;;9.13;6.67;;;9.70;99.90;;;;;;4999796;28;20459;-77
2023/03/17 08:32:18;;;;;;;8.70;6.67;;;9.70;99.90;;;;;;5001362;28;20520;-78
2023/03/17 08:34:47;;;;;;;10.90;6.63;;;9.60;99.90;;;;;;5000445;28;20477;-77
2023/03/17 08:37:13;;;;;;;19.37;6.83;;;9.40;99.90;;;;;;5000869;28;20474;-77
2023/03/17 08:39:41;;;;;;;10.87;7.00;;;9.20;99.90;;;;;;4999892;28;20509;-80
2023/03/17 08:42:08;;;;;;;8.97;6.60;;;9.00;99.90;;;;;;4999726;28;20540;-77
2023/03/17 08:44:35;;;;;;;7.37;5.93;;;9.00;99.90;;;;;;4999191;28;20470;-77
2023/03/17 08:47:02;;;;;;;9.50;6.40;;;9.40;99.90;;;;;;5000903;28;20451;-78
2023/03/17 08:49:29;;;;;;;7.47;6.53;;;9.50;99.90;;;;;;5000136;28;20484;-77
2023/03/17 08:51:56;;;;;;;12.43;7.20;;;9.50;99.90;;;;;;4999523;28;20454;-77
2023/03/17 08:54:23;;;;;;;11.80;7.47;;;9.80;99.90;;;;;;4999689;28;20566;-78
2023/03/17 08:56:51;;;;;;;8.60;6.50;;;10.20;99.90;;;;;;5002262;28;20460;-78
2023/03/17 08:59:18;;;;;;;13.23;6.97;;;10.30;99.90;;;;;;5001344;28;20537;-78
2023/03/17 09:01:45;;;;;;;9.40;7.60;;;10.30;99.90;;;;;;4999687;28;21195;-78
2023/03/17 09:04:12;;;;;;;11.33;7.23;;;10.30;99.90;;;;;;5000203;28;20482;-78
2023/03/17 09:06:39;;;;;;;8.40;7.10;;;10.20;99.90;;;;;;4999893;28;20451;-78
2023/03/17 09:09:06;;;;;;;9.43;7.30;;;10.10;99.90;;;;;;5000378;28;20455;-79
2023/03/17 09:11:33;;;;;;;12.90;7.30;;;10.10;99.90;;;;;;5000495;28;20593;-85
2023/03/17 09:14:02;;;;;;;8.60;6.80;;;10.00;99.90;;;;;;4999142;28;20490;-80
2023/03/17 09:16:32;;;;;;;9.30;7.30;;;9.90;99.90;;;;;;4999846;28;20466;-79
2023/03/17 09:18:59;;;;;;;11.57;7.40;;;9.70;99.90;;;;;;4999329;28;20476;-79
2023/03/17 09:21:26;;;;;;;9.53;7.13;;;9.30;99.90;;;;;;4999881;28;20459;-78
2023/03/17 09:23:52;;;;;;;13.70;7.90;;;9.20;99.90;;;;;;4999258;28;20479;-78
2023/03/17 09:26:19;;;;;;;10.00;7.27;;;9.10;99.90;;;;;;4998263;28;20520;-77
2023/03/17 09:28:46;;;;;;;10.17;7.47;;;9.10;99.90;;;;;;4999494;28;20470;-77
2023/03/17 09:31:14;;;;;;;13.93;7.80;;;9.10;99.90;;;;;;5000287;28;20457;-77
2023/03/17 09:33:41;;;;;;;9.80;7.20;;;9.10;99.90;;;;;;4998516;28;20622;-77
2023/03/17 09:36:08;;;;;;;10.50;7.70;;;9.00;99.90;;;;;;4999847;28;20512;-77
2023/03/17 09:38:36;;;;;;;10.00;7.57;;;8.90;99.90;;;;;;4999277;28;20460;-77
2023/03/17 09:41:19;;;;;;;14.27;7.80;;;8.80;99.90;;;;;;4998817;28;20969;-76
2023/03/17 09:43:56;;;;;;;9.30;7.60;;;8.60;99.90;;;;;;4998871;28;21238;-78
2023/03/17 09:46:38;;;;;;;13.07;7.80;;;8.50;99.90;;;;;;4999610;28;20457;-77
2023/03/17 09:49:09;;;;;;;13.17;8.23;;;8.40;99.90;;;;;;5000475;28;20449;-77
2023/03/17 09:51:36;;;;;;;11.80;8.40;;;8.40;99.90;;;;;;4998108;28;20526;-77
2023/03/17 09:54:05;;;;;;;15.13;8.50;;;8.50;99.90;;;;;;4999234;28;21364;-77
2023/03/17 09:56:34;;;;;;;11.20;8.20;;;8.60;99.90;;;;;;4999644;28;20517;-79
2023/03/17 09:59:05;;;;;;;11.20;8.17;;;8.60;99.90;;;;;;4998837;28;20443;-81
2023/03/17 10:01:34;;;;;;;13.33;8.77;;;8.60;99.90;;;;;;4999525;28;20445;-79
2023/03/17 10:04:02;;;;;;;10.03;8.90;;;8.70;99.90;;;;;;4999019;28;20881;-78
2023/03/17 10:06:36;;;;;;;11.70;8.30;;;8.80;99.90;;;;;;4998827;28;20466;-79
2023/03/17 10:09:13;;;;;;;12.37;9.17;;;8.90;99.90;;;;;;5000369;28;20465;-78
2023/03/17 10:11:42;;;;;;;14.10;7.90;;;8.90;99.90;;;;;;4998520;28;20461;-78
2023/03/17 10:14:29;;;;;;;13.97;8.73;;;8.80;99.90;;;;;;4999676;28;20488;-78
2023/03/17 10:17:01;;;;;;;12.43;8.40;;;8.80;99.90;;;;;;4998745;28;21833;-78
2023/03/17 10:19:32;;;;;;;15.93;9.40;;;9.00;99.90;;;;;;4999490;28;20461;-78
2023/03/17 10:22:03;;;;;;;11.23;8.87;;;9.10;99.90;;;;;;4998920;28;20460;-77
2023/03/17 10:24:33;;;;;;;14.23;9.13;;;9.30;99.90;;;;;;4997787;28;20478;-78
2023/03/17 10:27:05;;;;;;;10.37;8.20;;;9.60;99.90;;;;;;4998041;28;20451;-78
2023/03/17 10:29:32;;;;;;;12.93;8.87;;;9.70;99.90;;;;;;4998138;28;21215;-78
2023/03/17 10:32:00;;;;;;;13.03;8.60;;;9.90;99.90;;;;;;4997784;28;20498;-78
2023/03/17 10:34:29;;;;;;;19.47;9.10;;;10.00;99.90;;;;;;4999599;28;20495;-78
2023/03/17 10:36:59;;;;;;;12.50;9.47;;;10.20;99.90;;;;;;4997488;28;20460;-77
2023/03/17 10:39:26;;;;;;;13.50;9.47;;;10.50;99.90;;;;;;4998277;28;20462;-77
2023/03/17 10:41:56;;;;;;;12.90;8.43;;;10.50;99.90;;;;;;4998605;28;20466;-78
2023/03/17 10:44:38;;;;;;;15.03;8.50;;;10.60;99.90;;;;;;4998912;28;20475;-78
2023/03/17 10:47:19;;;;;;;11.90;8.00;;;10.70;99.90;;;;;;4998974;28;21087;-78
2023/03/17 10:49:46;;;;;;;13.30;8.07;;;10.60;99.90;;;;;;4997156;28;20451;-78
2023/03/17 10:52:20;;;;;;;15.90;8.00;;;10.50;99.90;;;;;;4998809;28;20453;-77
2023/03/17 10:54:48;;;;;;;16.20;8.23;;;10.40;99.90;;;;;;4997877;28;20549;-78
2023/03/17 10:57:15;;;;;;;12.03;8.43;;;10.60;99.90;;;;;;4998263;28;20466;-77
2023/03/17 10:59:47;;;;;;;12.67;8.13;;;10.60;99.90;;;;;;4998977;28;21440;-78
2023/03/17 11:02:25;;;;;;;14.73;9.33;;;10.60;99.90;;;;;;4997545;28;20495;-79
2023/03/17 11:04:58;;;;;;;11.57;7.70;;;10.50;99.90;;;;;;4999415;28;20575;-77
2023/03/17 11:07:30;;;;;;;11.50;7.70;;;10.60;99.90;;;;;;4950306;28;20554;-78
2023/03/17 11:10:01;;;;;;;14.13;7.67;;;10.50;99.90;;;;;;5002748;28;20497;-80
2023/03/17 11:12:33;;;;;;;10.37;7.20;;;10.60;99.90;;;;;;4999043;28;20449;-77
2023/03/17 11:15:04;;;;;;;12.37;7.50;;;10.60;99.90;;;;;;4998115;28;20496;-79
2023/03/17 11:17:40;;;;;;;10.80;6.77;;;10.60;99.90;;;;;;4999507;28;20469;-78
2023/03/17 11:20:20;;;;;;;10.03;6.97;;;10.70;99.90;;;;;;4998439;28;20443;-77
2023/03/17 11:22:55;;;;;;;13.53;8.20;;;10.80;99.90;;;;;;4998149;28;20538;-79
2023/03/17 11:25:23;;;;;;;10.90;7.50;;;10.80;99.90;;;;;;4998222;28;20497;-78
2023/03/17 11:27:55;;;;;;;10.80;7.70;;;11.00;99.90;;;;;;4997044;28;20467;-78
2023/03/17 11:30:31;;;;;;;10.97;7.50;;;11.10;99.90;;;;;;4998843;28;20518;-79
2023/03/17 11:33:09;;;;;;;19.30;7.43;;;11.00;99.90;;;;;;4998475;28;20454;-77
2023/03/17 11:35:45;;;;;;;15.57;7.67;;;11.20;99.90;;;;;;4997858;28;20481;-78
2023/03/17 11:38:20;;;;;;;13.90;7.30;;;11.30;99.90;;;;;;5002870;28;21026;-78
2023/03/17 11:41:07;;;;;;;9.40;7.23;;;11.50;99.90;;;;;;5001085;28;20938;-77
2023/03/17 11:43:44;;;;;;;12.47;7.67;;;11.70;99.90;;;;;;5001706;28;20918;-77
2023/03/17 11:46:15;;;;;;;11.43;7.17;;;11.80;99.90;;;;;;5001780;28;20461;-79
2023/03/17 11:48:55;;;;;;;10.53;7.50;;;11.80;99.90;;;;;;5001738;28;20444;-78
2023/03/17 11:51:29;;;;;;;9.23;7.10;;;11.80;99.90;;;;;;5002182;28;20880;-77
2023/03/17 11:54:10;;;;;;;12.13;7.93;;;11.80;99.90;;;;;;5000688;28;20509;-78
2023/03/17 11:56:45;;;;;;;16.23;7.30;;;11.90;99.90;;;;;;5002135;28;20458;-77
2023/03/17 11:59:19;;;;;;;11.90;7.60;;;11.90;99.90;;;;;;5000459;28;20516;-77
2023/03/17 12:01:54;;;;;;;10.40;7.17;;;11.80;99.90;;;;;;5001730;28;20464;-77
2023/03/17 12:04:29;;;;;;;13.33;7.40;;;11.70;99.90;;;;;;5002281;28;20467;-77
2023/03/17 12:07:01;;;;;;;13.47;7.33;;;11.70;99.90;;;;;;5001410;28;20454;-78
2023/03/17 12:09:32;;;;;;;10.67;7.43;;;11.70;99.90;;;;;;5003015;28;21204;-77
2023/03/17 12:12:02;;;;;;;8.53;7.20;;;11.70;99.90;;;;;;5001099;28;20508;-77
2023/03/17 12:14:32;;;;;;;11.80;7.30;;;11.80;99.90;;;;;;5002592;28;20570;-78
2023/03/17 12:17:08;;;;;;;10.00;7.10;;;11.90;99.90;;;;;;5001192;28;20510;-77
2023/03/17 12:19:42;;;;;;;7.43;6.37;;;11.90;99.90;;;;;;5000852;28;20497;-78
2023/03/17 12:22:18;;;;;;;9.63;6.90;;;12.00;99.90;;;;;;5001112;28;20447;-78
2023/03/17 12:24:50;;;;;;;7.50;6.40;;;12.10;99.90;;;;;;5001223;28;20469;-78
2023/03/17 12:27:23;;;;;;;10.17;6.90;;;12.20;99.90;;;;;;5001172;28;20462;-79
2023/03/17 12:29:55;;;;;;;10.43;7.10;;;12.20;99.90;;;;;;5000762;28;20450;-77
2023/03/17 12:32:26;;;;;;;10.23;7.07;;;12.30;99.90;;;;;;5000457;28;20514;-77
2023/03/17 12:34:56;;;;;;;10.77;6.60;;;12.40;99.90;;;;;;5000226;28;20483;-77
2023/03/17 12:37:23;;;;;;;9.40;6.13;;;12.50;99.90;;;;;;5000333;28;20455;-78
2023/03/17 12:39:59;;;;;;;8.03;6.03;;;12.40;99.90;;;;;;4999632;28;20454;-78
2023/03/17 12:42:36;;;;;;;10.00;6.80;;;12.30;99.90;;;;;;5001067;28;20453;-78
2023/03/17 12:45:42;;;;;;;9.00;6.03;;;12.20;99.90;;;;;;5000347;28;22262;-80
2023/03/17 12:48:44;;;;;;;7.53;6.27;;;12.20;99.90;;;;;;4999709;28;20451;-78
2023/03/17 12:51:38;;;;;;;12.20;6.20;;;12.20;99.90;;;;;;4982184;28;20467;-78
2023/03/17 12:54:12;;;;;;;10.10;5.63;;;12.30;99.90;;;;;;5000143;28;20498;-78
2023/03/17 12:56:45;;;;;;;9.13;6.83;;;12.40;99.90;;;;;;5001353;28;20472;-77
2023/03/17 12:59:17;;;;;;;10.80;6.47;;;12.50;99.90;;;;;;5000913;28;20459;-77